Time;durP1;ratioP1;P1;durP2;ratioP2;P2;SDS_P1;SDS_P2;PMS_P1;PMS_P2;Temp;Humidity;BMP_temperature;BMP_pressure;BME280_temperature;BME280_humidity;BME280_pressure;Samples;Min_cycle;Max_cycle;Signal;HPM_P1;HPM_P2
2023/06/21 00:01:35;;;;;;;10.02;9.13;;;;;;;19.67;96.13;100969.47;3583184;39;20056;-63
2023/06/21 00:04:00;;;;;;;10.45;9.32;;;;;;;19.63;95.83;100965.28;3582757;39;20051;-63
2023/06/21 00:06:34;;;;;;;9.90;9.10;;;;;;;19.66;95.17;100973.19;3586924;39;20114;-63
2023/06/21 00:09:03;;;;;;;10.68;9.57;;;;;;;19.65;95.99;100976.94;3584704;39;20128;-63
2023/06/21 00:11:33;;;;;;;10.38;9.38;;;;;;;19.61;95.16;100984.53;3584642;39;20132;-63
2023/06/21 00:13:59;;;;;;;9.77;8.88;;;;;;;19.61;95.52;100987.25;3586086;39;20055;-64
2023/06/21 00:16:24;;;;;;;10.00;8.98;;;;;;;19.57;96.16;100994.03;3580864;39;20060;-64
2023/06/21 00:18:50;;;;;;;10.13;9.23;;;;;;;19.58;96.79;100990.28;3587947;39;20425;-65
2023/06/21 00:21:16;;;;;;;9.95;9.02;;;;;;;19.25;96.03;100946.22;3582866;39;20061;-65
2023/06/21 00:23:43;;;;;;;9.80;8.90;;;;;;;19.54;95.96;100996.19;3591724;39;20509;-65
2023/06/21 00:26:09;;;;;;;10.50;9.50;;;;;;;19.43;96.58;100978.13;3588942;39;20056;-65
2023/06/21 00:28:35;;;;;;;10.20;9.30;;;;;;;19.53;96.91;100992.59;3584615;39;20079;-65
2023/06/21 00:31:00;;;;;;;9.23;8.43;;;;;;;19.52;96.84;100985.44;3586678;39;20120;-65
2023/06/21 00:33:26;;;;;;;10.70;9.70;;;;;;;19.51;96.62;100988.31;3577217;39;20067;-65
2023/06/21 00:35:52;;;;;;;11.07;9.98;;;;;;;19.42;96.89;100970.97;3583315;39;20174;-64
2023/06/21 00:38:18;;;;;;;11.02;9.93;;;;;;;19.50;96.52;100987.44;3582849;39;20071;-64
2023/06/21 00:40:44;;;;;;;11.65;10.30;;;;;;;19.51;97.00;100997.34;3584840;39;20215;-64
2023/06/21 00:43:09;;;;;;;11.25;10.10;;;;;;;19.50;97.09;100998.34;3585383;39;20059;-64
2023/06/21 00:45:45;;;;;;;11.93;9.90;;;;;;;19.53;96.88;100994.47;3582588;39;20322;-64
2023/06/21 00:48:11;;;;;;;11.85;10.63;;;;;;;19.48;97.04;100989.47;3575388;39;20378;-65
2023/06/21 00:50:38;;;;;;;11.00;10.00;;;;;;;19.51;97.81;100999.22;3585713;39;20492;-64
2023/06/21 00:53:04;;;;;;;11.48;10.43;;;;;;;19.49;97.93;100997.50;3583429;39;20124;-64
2023/06/21 00:55:31;;;;;;;12.88;11.10;;;;;;;19.47;97.55;100996.78;3589292;39;20805;-64
2023/06/21 00:57:57;;;;;;;11.77;10.68;;;;;;;19.47;97.46;100999.53;3587025;39;20364;-64
2023/06/21 01:00:24;;;;;;;11.88;10.63;;;;;;;19.46;98.34;101005.09;3584208;39;20066;-64
2023/06/21 01:02:54;;;;;;;12.40;11.18;;;;;;;19.49;97.57;100999.34;3584612;39;20051;-64
2023/06/21 01:05:25;;;;;;;12.70;11.40;;;;;;;19.49;97.39;101002.09;3584289;39;20056;-64
2023/06/21 01:08:11;;;;;;;11.38;10.23;;;;;;;19.51;97.23;101013.72;3586519;39;20048;-64
2023/06/21 01:11:09;;;;;;;11.30;10.07;;;;;;;19.47;97.30;101013.16;3587261;39;20082;-64
2023/06/21 01:14:08;;;;;;;11.77;10.57;;;;;;;19.51;97.40;101007.41;3584747;39;20060;-64
2023/06/21 01:16:56;;;;;;;11.57;10.52;;;;;;;19.46;96.60;100983.28;3583750;39;20138;-64
2023/06/21 01:19:43;;;;;;;11.77;10.30;;;;;;;19.50;97.29;101001.06;3580083;39;20090;-64
2023/06/21 01:22:24;;;;;;;11.27;10.18;;;;;;;19.52;97.16;100999.06;3586407;39;20060;-65
2023/06/21 01:25:45;;;;;;;11.45;10.38;;;;;;;19.51;96.54;101010.13;3584572;39;20061;-64
2023/06/21 01:29:00;;;;;;;11.65;10.55;;;;;;;19.51;96.68;101013.72;3584725;39;20056;-64
2023/06/21 01:31:27;;;;;;;11.88;10.77;;;;;;;19.51;97.62;101010.13;3588609;39;20055;-64
2023/06/21 01:33:57;;;;;;;11.30;10.20;;;;;;;19.52;97.12;101009.97;3581590;39;20180;-64
2023/06/21 01:36:23;;;;;;;11.73;10.63;;;;;;;19.43;97.17;101005.41;3589082;39;20052;-64
2023/06/21 01:38:57;;;;;;;11.45;10.30;;;;;;;19.51;97.03;101013.72;3582128;39;20148;-65
2023/06/21 01:41:23;;;;;;;;;;;;;;;18.75;96.56;100905.59;3582894;39;20492;-64
2023/06/21 01:43:50;;;;;;;11.88;10.68;;;;;;;19.47;96.28;101026.78;3588677;39;19947;-64
2023/06/21 01:46:19;;;;;;;12.10;10.70;;;;;;;19.47;96.76;101025.91;3584010;39;20059;-64
2023/06/21 01:48:47;;;;;;;12.07;10.98;;;;;;;19.44;97.31;101008.00;3587040;39;20077;-65
2023/06/21 01:51:16;;;;;;;13.75;10.80;;;;;;;19.46;96.58;101019.59;3584127;39;20160;-65
2023/06/21 01:53:43;;;;;;;12.40;11.20;;;;;;;19.47;96.28;101020.44;3585898;39;20060;-64
2023/06/21 01:56:16;;;;;;;12.32;11.10;;;;;;;19.42;96.93;101025.50;3587486;39;20055;-63
2023/06/21 01:58:42;;;;;;;12.75;11.55;;;;;;;19.41;96.45;101035.56;3589895;39;20090;-64
2023/06/21 02:01:11;;;;;;;13.18;11.15;;;;;;;19.41;97.64;101040.13;3584439;39;20383;-64
2023/06/21 02:03:41;;;;;;;12.73;11.30;;;;;;;19.40;96.76;101030.22;3587548;39;20056;-64
2023/06/21 02:06:09;;;;;;;12.68;11.48;;;;;;;19.38;96.85;101035.00;3588051;39;20091;-64
2023/06/21 02:08:37;;;;;;;12.65;11.40;;;;;;;19.38;97.08;101037.72;3590121;39;20117;-64
2023/06/21 02:11:03;;;;;;;12.02;10.80;;;;;;;19.38;96.92;101045.91;3590255;39;20058;-64
2023/06/21 02:13:29;;;;;;;13.10;11.82;;;;;;;19.37;97.02;101041.44;3584221;39;20295;-64
2023/06/21 02:15:55;;;;;;;12.60;11.40;;;;;;;19.10;97.30;100998.59;3587965;39;20110;-64
2023/06/21 02:18:22;;;;;;;13.43;12.07;;;;;;;19.37;97.76;101044.16;3585047;39;20050;-64
2023/06/21 02:20:49;;;;;;;12.27;11.13;;;;;;;19.24;96.91;101034.41;3590148;39;20440;-64
2023/06/21 02:23:15;;;;;;;14.00;12.32;;;;;;;19.35;97.86;101059.81;3584715;39;20186;-64
2023/06/21 02:25:41;;;;;;;12.75;11.55;;;;;;;19.34;97.20;101067.09;3581684;39;20072;-64
2023/06/21 02:28:06;;;;;;;12.55;11.35;;;;;;;19.29;97.12;101068.56;3583680;39;20349;-65
2023/06/21 02:30:32;;;;;;;14.80;11.73;;;;;;;19.05;96.91;101020.81;3584618;39;20055;-64
2023/06/21 02:32:58;;;;;;;12.93;11.68;;;;;;;19.24;96.63;101060.81;3588102;39;20058;-64
2023/06/21 02:35:24;;;;;;;12.73;11.50;;;;;;;19.23;96.98;101065.41;3587520;39;20058;-65
2023/06/21 02:37:50;;;;;;;12.88;11.68;;;;;;;19.21;97.38;101072.88;3590485;39;20095;-64
2023/06/21 02:40:16;;;;;;;13.27;11.75;;;;;;;18.97;97.61;101037.06;3587373;39;20669;-65
2023/06/21 02:42:42;;;;;;;13.05;11.85;;;;;;;19.20;97.21;101071.16;3588247;39;20075;-64
2023/06/21 02:45:11;;;;;;;15.20;12.27;;;;;;;19.20;97.25;101075.75;3585744;39;20067;-65
2023/06/21 02:47:37;;;;;;;14.90;13.50;;;;;;;19.15;97.34;101078.91;3589047;39;20056;-63
2023/06/21 02:50:04;;;;;;;16.35;14.75;;;;;;;19.14;97.57;101074.47;3585981;39;20063;-64
2023/06/21 02:52:31;;;;;;;14.38;12.85;;;;;;;19.11;97.66;101076.63;3586884;39;20048;-63
2023/06/21 02:54:57;;;;;;;13.98;12.57;;;;;;;18.82;98.30;101035.75;3584202;39;20051;-60
2023/06/21 02:57:23;;;;;;;13.90;12.52;;;;;;;19.08;97.59;101083.22;3586685;39;20126;-61
2023/06/21 02:59:50;;;;;;;13.02;11.82;;;;;;;18.74;97.68;101033.72;3584736;39;20087;-61
2023/06/21 03:02:16;;;;;;;13.15;11.95;;;;;;;19.07;98.23;101089.66;3585251;39;20120;-61
2023/06/21 03:04:43;;;;;;;12.90;11.68;;;;;;;19.02;97.66;101094.69;3586194;39;20065;-61
2023/06/21 03:07:09;;;;;;;13.65;12.35;;;;;;;19.01;98.84;101107.44;3586415;39;20412;-61
2023/06/21 03:09:34;;;;;;;13.13;11.75;;;;;;;19.00;97.95;101104.88;3592965;39;20051;-62
2023/06/21 03:12:07;;;;;;;14.48;12.48;;;;;;;18.99;98.77;101117.63;3586575;39;20493;-61
2023/06/21 03:14:37;;;;;;;13.63;12.23;;;;;;;18.89;98.75;101099.56;3582583;39;20149;-61
2023/06/21 03:17:04;;;;;;;13.88;12.13;;;;;;;18.97;98.59;101116.91;3583621;39;20063;-61
2023/06/21 03:19:30;;;;;;;14.35;12.88;;;;;;;18.99;99.04;101124.94;3583894;39;20077;-60
2023/06/21 03:21:56;;;;;;;13.20;11.90;;;;;;;18.99;99.12;101125.78;3588380;39;20387;-60
2023/06/21 03:24:21;;;;;;;13.88;12.48;;;;;;;19.00;99.17;101129.41;3590797;39;20067;-61
2023/06/21 03:26:47;;;;;;;13.90;12.52;;;;;;;18.99;99.17;101122.22;3589966;39;20103;-62
2023/06/21 03:29:12;;;;;;;12.55;11.35;;;;;;;19.04;99.43;101135.44;3585416;39;20075;-62
2023/06/21 03:31:38;;;;;;;12.93;11.52;;;;;;;19.08;98.88;101126.81;3585157;39;20055;-61
2023/06/21 03:34:04;;;;;;;12.88;11.63;;;;;;;19.11;98.67;101131.97;3586802;39;20070;-61
2023/06/21 03:36:29;;;;;;;15.20;12.43;;;;;;;19.11;97.83;101131.97;3582075;39;20063;-61
2023/06/21 03:38:55;;;;;;;14.00;12.57;;;;;;;19.15;99.03;101130.66;3584101;39;20349;-60
2023/06/21 03:41:20;;;;;;;13.32;12.02;;;;;;;19.20;97.98;101136.56;3587446;39;20091;-61
2023/06/21 03:43:46;;;;;;;14.38;12.90;;;;;;;19.22;98.07;101129.13;3585007;39;20392;-60
2023/06/21 03:46:12;;;;;;;14.30;12.80;;;;;;;19.23;97.47;101128.09;3584476;39;20677;-61
2023/06/21 03:48:37;;;;;;;14.90;13.40;;;;;;;19.24;97.78;101121.63;3580793;39;20063;-62
2023/06/21 03:51:03;;;;;;;14.38;11.95;;;;;;;19.30;98.02;101125.66;3585207;39;20055;-62
2023/06/21 03:53:28;;;;;;;14.23;12.75;;;;;;;19.34;97.90;101126.22;3583552;39;20055;-61
2023/06/21 03:55:54;;;;;;;14.32;12.93;;;;;;;19.36;98.00;101119.63;3582824;39;20082;-62
2023/06/21 03:58:20;;;;;;;13.85;12.55;;;;;;;19.42;97.70;101134.56;3589075;39;20519;-61
2023/06/21 04:00:45;;;;;;;15.02;13.45;;;;;;;19.48;97.64;101137.56;3585775;39;20055;-61
2023/06/21 04:03:11;;;;;;;14.20;12.80;;;;;;;19.54;97.69;101138.00;3585690;39;20060;-62
2023/06/21 04:05:36;;;;;;;16.00;14.38;;;;;;;19.53;96.87;101153.47;3587907;39;20068;-62
2023/06/21 04:08:02;;;;;;;15.50;14.00;;;;;;;19.46;96.67;101147.75;3577055;39;20055;-62
2023/06/21 04:10:27;;;;;;;16.35;14.65;;;;;;;19.46;97.17;101146.88;3588825;39;20403;-62
2023/06/21 04:12:53;;;;;;;15.90;14.35;;;;;;;19.45;98.75;101154.22;3587616;39;20051;-61
2023/06/21 04:15:20;;;;;;;15.90;14.27;;;;;;;19.47;98.21;101154.06;3590922;39;20417;-61
2023/06/21 04:17:46;;;;;;;33.75;13.88;;;;;;;19.49;97.77;101163.81;3589592;39;20036;-61
2023/06/21 04:20:15;;;;;;;15.75;13.73;;;;;;;19.48;98.05;101173.00;3584094;39;20071;-62
2023/06/21 04:22:42;;;;;;;15.15;13.73;;;;;;;19.28;97.85;101127.66;3584669;39;20370;-62
2023/06/21 04:25:09;;;;;;;15.38;13.77;;;;;;;19.55;97.01;101181.47;3585650;39;20115;-63
2023/06/21 04:27:35;;;;;;;15.75;14.13;;;;;;;19.58;96.88;101183.06;3585501;39;20086;-62
2023/06/21 04:30:00;;;;;;;14.98;13.57;;;;;;;18.91;96.78;101060.28;3586391;39;20398;-62
2023/06/21 04:32:32;;;;;;;15.40;13.80;;;;;;;19.61;96.21;101183.63;3589278;39;20091;-60
2023/06/21 04:34:59;;;;;;;16.08;14.48;;;;;;;19.60;97.06;101181.91;3586798;39;20104;-62
2023/06/21 04:37:25;;;;;;;16.20;14.50;;;;;;;19.62;96.97;101190.78;3586480;39;20657;-61
2023/06/21 04:39:52;;;;;;;15.88;14.35;;;;;;;19.50;97.05;101170.13;3589352;39;20311;-61
2023/06/21 04:42:21;;;;;;;16.20;14.60;;;;;;;19.55;96.38;101176.03;3588478;39;20737;-62
2023/06/21 04:44:49;;;;;;;15.93;14.35;;;;;;;19.69;97.20;101192.00;3585738;39;20070;-61
2023/06/21 04:47:16;;;;;;;16.40;14.55;;;;;;;19.67;97.61;101191.25;3581209;39;20071;-63
2023/06/21 04:49:43;;;;;;;16.95;15.25;;;;;;;19.69;96.70;101191.09;3586987;39;20080;-62
2023/06/21 04:52:09;;;;;;;16.70;15.10;;;;;;;19.67;97.68;101191.25;3583444;39;20066;-63
2023/06/21 04:54:36;;;;;;;17.50;15.70;;;;;;;19.72;97.28;101188.09;3589458;39;20051;-62
2023/06/21 04:57:04;;;;;;;17.63;15.73;;;;;;;19.70;97.40;101177.34;3583537;39;20069;-63
2023/06/21 04:59:30;;;;;;;19.15;17.10;;;;;;;19.71;97.82;101189.09;3582130;39;20442;-63
2023/06/21 05:01:56;;;;;;;18.30;16.42;;;;;;;19.78;98.90;101194.84;3581711;39;20059;-62
2023/06/21 05:04:22;;;;;;;17.55;15.85;;;;;;;19.88;98.84;101201.13;3572760;39;20043;-62
2023/06/21 05:06:48;;;;;;;18.15;16.02;;;;;;;19.90;97.71;101199.97;3585856;39;20420;-63
2023/06/21 05:09:13;;;;;;;19.38;17.38;;;;;;;19.93;97.42;101207.88;3584955;39;20060;-62
2023/06/21 05:11:39;;;;;;;17.88;16.02;;;;;;;19.97;97.99;101213.03;3583104;39;20337;-63
2023/06/21 05:14:05;;;;;;;20.88;17.63;;;;;;;20.00;96.76;101216.34;3580806;39;20089;-63
2023/06/21 05:16:31;;;;;;;19.25;17.38;;;;;;;20.04;97.50;101212.28;3582645;39;20388;-63
2023/06/21 05:18:57;;;;;;;19.23;17.27;;;;;;;20.13;97.85;101219.59;3582263;39;20145;-63
2023/06/21 05:21:22;;;;;;;18.27;16.48;;;;;;;20.25;96.92;101213.97;3583354;39;20402;-64
2023/06/21 05:23:48;;;;;;;17.83;16.13;;;;;;;20.34;96.66;101224.00;3583844;39;20055;-64
2023/06/21 05:26:14;;;;;;;18.75;16.90;;;;;;;20.44;95.88;101229.44;3582237;39;20402;-64
2023/06/21 05:28:39;;;;;;;18.58;16.80;;;;;;;20.43;94.04;101231.31;3582713;39;20129;-64
2023/06/21 05:31:05;;;;;;;18.35;16.65;;;;;;;20.52;93.04;101237.75;3583115;39;20420;-64
2023/06/21 05:33:30;;;;;;;17.55;15.85;;;;;;;20.53;93.07;101234.91;3583905;39;20059;-64
2023/06/21 05:35:56;;;;;;;18.45;16.63;;;;;;;20.53;92.68;101229.44;3581280;39;20052;-64
2023/06/21 05:38:22;;;;;;;18.17;16.38;;;;;;;20.43;92.27;101222.28;3582467;39;20078;-63
2023/06/21 05:40:47;;;;;;;17.95;16.23;;;;;;;20.48;92.31;101225.41;3589030;39;20059;-64
2023/06/21 05:43:13;;;;;;;17.50;15.80;;;;;;;20.55;92.44;101232.88;3587420;39;20598;-64
2023/06/21 05:45:39;;;;;;;17.10;15.40;;;;;;;20.55;91.36;101238.34;3585157;39;20082;-64
2023/06/21 05:48:05;;;;;;;18.02;16.30;;;;;;;20.58;92.16;101243.53;3588460;39;20360;-64
2023/06/21 05:50:30;;;;;;;18.13;16.20;;;;;;;20.48;91.51;101214.47;3581323;39;20054;-63
2023/06/21 05:52:59;;;;;;;18.05;16.17;;;;;;;20.75;91.21;101249.19;3585026;39;20438;-63
2023/06/21 05:55:25;;;;;;;16.90;15.15;;;;;;;20.78;90.52;101248.91;3587124;39;20048;-63
2023/06/21 05:57:51;;;;;;;18.83;16.88;;;;;;;20.87;90.48;101258.91;3586700;39;20066;-64
2023/06/21 06:00:18;;;;;;;17.70;15.95;;;;;;;20.89;89.33;101266.94;3584239;39;20357;-63
2023/06/21 06:02:45;;;;;;;19.88;17.10;;;;;;;20.86;89.82;101268.09;3584059;39;20059;-64
2023/06/21 06:05:11;;;;;;;18.45;16.73;;;;;;;20.83;90.05;101260.22;3586900;39;20056;-64
2023/06/21 06:07:37;;;;;;;19.75;17.52;;;;;;;20.95;89.41;101275.41;3583940;39;20509;-69
2023/06/21 06:10:04;;;;;;;19.02;17.23;;;;;;;20.99;89.63;101279.53;3584361;39;20394;-67
2023/06/21 06:12:30;;;;;;;18.65;16.77;;;;;;;20.98;88.33;101279.72;3587894;39;20055;-67
2023/06/21 06:14:56;;;;;;;19.33;17.08;;;;;;;21.02;88.74;101272.91;3586455;39;20048;-68
2023/06/21 06:17:22;;;;;;;18.05;16.35;;;;;;;20.73;87.51;101224.75;3588333;39;20047;-69
2023/06/21 06:19:47;;;;;;;18.75;16.77;;;;;;;21.07;87.48;101279.66;3584647;39;20051;-69
2023/06/21 06:22:13;;;;;;;18.90;17.08;;;;;;;21.14;87.72;101276.31;3586386;39;20067;-70
2023/06/21 06:24:39;;;;;;;17.48;15.65;;;;;;;21.19;86.42;101279.47;3587788;39;20616;-68
2023/06/21 06:27:05;;;;;;;17.38;15.68;;;;;;;21.26;85.64;101286.91;3585216;39;20063;-68
2023/06/21 06:29:31;;;;;;;16.70;15.02;;;;;;;21.35;84.16;101296.09;3591511;39;20059;-68
2023/06/21 06:31:57;;;;;;;17.45;15.57;;;;;;;21.41;83.71;101297.31;3589264;39;20052;-68
2023/06/21 06:34:22;;;;;;;18.42;15.30;;;;;;;21.42;83.92;101299.94;3588721;39;20062;-69
2023/06/21 06:36:48;;;;;;;15.55;13.98;;;;;;;20.94;83.72;101199.91;3588176;39;20648;-68
2023/06/21 06:39:14;;;;;;;13.93;12.50;;;;;;;21.74;81.55;101312.22;3589490;39;20060;-68
2023/06/21 06:41:39;;;;;;;11.57;10.05;;;;;;;21.83;78.43;101316.78;3593860;39;20055;-68
2023/06/21 06:44:05;;;;;;;10.90;9.90;;;;;;;21.89;77.34;101329.84;3587123;39;20493;-69
2023/06/21 06:46:31;;;;;;;9.95;9.05;;;;;;;21.88;74.87;101325.34;3589724;39;20308;-68
2023/06/21 06:48:57;;;;;;;11.18;9.60;;;;;;;21.86;74.01;101332.03;3588246;39;20066;-67
2023/06/21 06:51:24;;;;;;;11.00;8.73;;;;;;;21.97;75.98;101334.50;3587277;39;20106;-69
2023/06/21 06:53:49;;;;;;;10.32;9.32;;;;;;;22.07;75.90;101345.38;3586073;39;20059;-68
2023/06/21 06:56:15;;;;;;;10.30;9.27;;;;;;;21.98;76.21;101314.34;3583766;39;20069;-69
2023/06/21 06:58:41;;;;;;;9.73;8.73;;;;;;;22.26;75.93;101345.25;3583359;39;20144;-68
2023/06/21 07:01:07;;;;;;;8.13;7.32;;;;;;;22.24;72.23;101350.03;3581432;39;20044;-68
2023/06/21 07:03:33;;;;;;;9.45;7.70;;;;;;;22.21;72.25;101351.19;3584027;39;20056;-68
2023/06/21 07:05:59;;;;;;;8.50;7.70;;;;;;;21.86;71.68;101300.03;3587907;39;20125;-68
2023/06/21 07:08:25;;;;;;;8.35;7.55;;;;;;;22.18;72.99;101358.88;3588764;39;20047;-68
2023/06/21 07:10:52;;;;;;;8.77;8.00;;;;;;;22.24;74.16;101352.78;3583257;39;20059;-69
2023/06/21 07:13:18;;;;;;;9.18;8.18;;;;;;;22.42;74.18;101358.22;3589830;39;20055;-69
2023/06/21 07:15:44;;;;;;;9.95;8.95;;;;;;;22.56;74.36;101351.31;3585613;39;20304;-67
2023/06/21 07:18:11;;;;;;;12.15;9.63;;;;;;;22.66;73.37;101343.84;3585701;39;20308;-69
2023/06/21 07:20:37;;;;;;;11.55;10.55;;;;;;;22.91;74.08;101351.19;3585299;39;20887;-69
2023/06/21 07:23:03;;;;;;;13.43;11.57;;;;;;;22.94;71.81;101359.13;3584757;39;20052;-68
2023/06/21 07:25:29;;;;;;;12.70;11.40;;;;;;;22.96;72.86;101358.09;3584655;39;20128;-68
2023/06/21 07:27:55;;;;;;;12.88;11.57;;;;;;;22.55;72.09;101290.16;3580397;39;20068;-69
2023/06/21 07:30:22;;;;;;;15.00;11.32;;;;;;;22.93;71.63;101354.66;3586309;39;20129;-69
2023/06/21 07:32:49;;;;;;;13.25;11.90;;;;;;;23.07;71.18;101352.34;3586642;39;20066;-68
2023/06/21 07:35:15;;;;;;;12.57;11.38;;;;;;;23.29;71.29;101361.88;3577091;39;20056;-68
2023/06/21 07:37:45;;;;;;;12.05;10.73;;;;;;;23.30;70.00;101361.69;3587163;39;20390;-68
2023/06/21 07:40:12;;;;;;;10.07;9.07;;;;;;;23.46;69.20;101360.91;3582168;39;20321;-67
2023/06/21 07:42:39;;;;;;;10.25;9.07;;;;;;;23.67;67.49;101373.31;3582241;39;20137;-68
2023/06/21 07:45:06;;;;;;;10.25;8.73;;;;;;;23.63;65.00;101337.13;3588349;39;20055;-67
2023/06/21 07:47:32;;;;;;;7.68;6.97;;;;;;;23.92;62.62;101377.88;3583741;39;20068;-68
2023/06/21 07:49:59;;;;;;;7.57;6.95;;;;;;;23.85;62.18;101355.72;3583895;39;20051;-67
2023/06/21 07:52:24;;;;;;;8.80;8.00;;;;;;;23.95;62.81;101383.03;3581168;39;20055;-68
2023/06/21 07:54:50;;;;;;;8.75;7.88;;;;;;;23.95;63.95;101372.06;3586380;39;20129;-68
2023/06/21 07:57:17;;;;;;;9.32;8.23;;;;;;;24.05;64.45;101358.16;3588182;39;20067;-69
2023/06/21 07:59:43;;;;;;;11.05;9.18;;;;;;;24.14;63.40;101376.38;3588286;39;20510;-68
2023/06/21 08:02:09;;;;;;;9.60;8.70;;;;;;;24.13;64.25;101379.28;3587022;39;20289;-68
2023/06/21 08:04:38;;;;;;;8.45;7.70;;;;;;;24.23;63.60;101380.84;3580574;39;20055;-69
2023/06/21 08:07:05;;;;;;;7.93;7.22;;;;;;;24.27;60.72;101389.59;3584730;39;20335;-69
2023/06/21 08:09:31;;;;;;;8.18;7.20;;;;;;;24.37;60.68;101392.19;3585392;39;20060;-69
2023/06/21 08:11:58;;;;;;;8.00;7.30;;;;;;;24.61;61.55;101389.47;3577551;39;20065;-69
2023/06/21 08:14:24;;;;;;;8.70;7.20;;;;;;;24.79;60.49;101394.75;3577599;39;20399;-68
2023/06/21 08:16:50;;;;;;;6.97;6.28;;;;;;;25.00;58.93;101392.31;3587550;39;20059;-67
2023/06/21 08:19:15;;;;;;;6.75;5.68;;;;;;;25.12;58.08;101397.44;3586530;39;20397;-68
2023/06/21 08:21:41;;;;;;;7.68;6.05;;;;;;;25.22;57.15;101395.38;3587093;39;20075;-68
2023/06/21 08:24:07;;;;;;;6.13;5.60;;;;;;;25.33;57.58;101399.63;3584444;39;20055;-68
2023/06/21 08:26:32;;;;;;;6.25;5.30;;;;;;;25.44;56.79;101399.25;3581072;39;20055;-68
2023/06/21 08:28:58;;;;;;;5.40;4.90;;;;;;;25.61;54.70;101400.88;3584960;39;20051;-68
2023/06/21 08:31:24;;;;;;;6.40;4.90;;;;;;;25.67;53.29;101391.91;3584330;39;20048;-69
2023/06/21 08:33:49;;;;;;;6.32;4.93;;;;;;;25.70;53.32;101408.06;3586319;39;20338;-68
2023/06/21 08:36:15;;;;;;;6.15;5.55;;;;;;;25.63;53.97;101401.59;3588330;39;20470;-69
2023/06/21 08:38:40;;;;;;;6.60;5.88;;;;;;;25.71;55.11;101397.91;3579599;39;20368;-68
2023/06/21 08:41:07;;;;;;;6.22;5.70;;;;;;;25.66;54.75;101390.22;3582185;39;20059;-68
2023/06/21 08:43:33;;;;;;;6.47;5.65;;;;;;;25.67;54.40;101404.84;3586768;39;20060;-69
2023/06/21 08:46:03;;;;;;;5.25;4.80;;;;;;;25.76;54.82;101400.16;3585963;39;20423;-68
2023/06/21 08:48:31;;;;;;;5.30;4.90;;;;;;;25.40;52.38;101301.53;3584413;39;20393;-69
2023/06/21 08:51:03;;;;;;;6.05;5.45;;;;;;;24.96;53.25;101200.28;3590162;39;20608;-67
2023/06/21 08:53:47;;;;;;;5.60;5.10;;;;;;;26.22;51.86;101402.97;3580962;39;20056;-67
2023/06/21 08:56:19;;;;;;;;;;;;;;;26.36;52.84;101404.94;3584300;39;20060;-68
2023/06/21 08:59:03;;;;;;;6.97;5.82;;;;;;;26.49;50.56;101402.44;3588436;39;20292;-67
2023/06/21 09:01:44;;;;;;;7.60;5.20;;;;;;;26.53;50.71;101403.78;3585120;39;20153;-68
2023/06/21 09:04:17;;;;;;;5.22;4.75;;;;;;;26.73;50.46;101400.50;3580107;39;20137;-68
2023/06/21 09:06:45;;;;;;;5.13;4.10;;;;;;;26.84;48.89;101400.06;3581684;39;20056;-68
2023/06/21 09:09:14;;;;;;;5.95;5.35;;;;;;;26.85;49.87;101407.28;3584343;39;20084;-68
2023/06/21 09:11:42;;;;;;;5.05;4.20;;;;;;;26.87;48.50;101385.88;3584315;39;20072;-68
2023/06/21 09:14:09;;;;;;;3.88;3.45;;;;;;;27.07;48.57;101392.56;3585854;39;20047;-69
2023/06/21 09:16:37;;;;;;;4.10;2.88;;;;;;;27.26;45.79;101404.13;3582954;39;20096;-68
2023/06/21 09:19:03;;;;;;;3.67;2.70;;;;;;;27.54;45.23;101412.56;3587131;39;20362;-69
2023/06/21 09:21:30;;;;;;;5.05;3.15;;;;;;;27.60;45.01;101422.00;3582106;39;20443;-68
2023/06/21 09:23:56;;;;;;;9.52;3.60;;;;;;;27.38;47.00;101419.16;3580177;39;20297;-69
2023/06/21 09:26:22;;;;;;;4.35;4.00;;;;;;;27.08;46.38;101397.03;3582316;39;20063;-68
2023/06/21 09:28:48;;;;;;;5.65;4.30;;;;;;;27.21;48.05;101412.97;3576515;39;20064;-69
2023/06/21 09:31:13;;;;;;;3.55;3.25;;;;;;;27.02;46.63;101397.81;3584985;39;20108;-69
2023/06/21 09:33:41;;;;;;;3.58;2.67;;;;;;;27.21;45.00;101423.13;3584242;39;20064;-69
2023/06/21 09:36:08;;;;;;;2.33;2.08;;;;;;;27.35;43.78;101419.53;3580261;39;20060;-69
2023/06/21 09:38:36;;;;;;;2.60;2.40;;;;;;;27.48;43.13;101428.00;3579157;39;20062;-69
2023/06/21 09:41:06;;;;;;;2.88;2.58;;;;;;;27.63;42.58;101429.91;3585036;39;20054;-69
2023/06/21 09:43:31;;;;;;;4.18;2.70;;;;;;;27.90;43.08;101433.88;3584995;39;20063;-69
2023/06/21 09:46:07;;;;;;;3.35;2.92;;;;;;;27.85;44.31;101403.22;3586355;39;21475;-69
2023/06/21 09:48:35;;;;;;;4.35;2.60;;;;;;;28.07;44.10;101423.44;3583917;39;20047;-69
2023/06/21 09:51:03;;;;;;;4.25;3.45;;;;;;;28.12;43.47;101423.72;3582584;39;20060;-70
2023/06/21 09:53:30;;;;;;;5.18;4.32;;;;;;;28.01;42.97;101425.09;3583413;39;20411;-69
2023/06/21 09:55:56;;;;;;;7.22;4.38;;;;;;;27.79;44.32;101426.97;3582208;39;20067;-69
2023/06/21 09:58:22;;;;;;;12.52;4.90;;;;;;;27.94;44.42;101424.13;3585253;39;20054;-69
2023/06/21 10:00:48;;;;;;;5.65;3.40;;;;;;;28.06;43.06;101427.25;3589971;39;20063;-69
2023/06/21 10:03:14;;;;;;;2.85;2.65;;;;;;;28.24;41.91;101435.97;3588238;39;20067;-69
2023/06/21 10:05:58;;;;;;;4.10;2.85;;;;;;;28.52;41.59;101443.53;3584442;39;21364;-69
2023/06/21 10:08:36;;;;;;;2.63;2.42;;;;;;;28.72;40.58;101441.78;3584590;39;20322;-70
2023/06/21 10:11:03;;;;;;;2.72;2.53;;;;;;;28.91;40.38;101437.47;3583820;39;20055;-70
2023/06/21 10:13:37;;;;;;;4.05;2.88;;;;;;;29.09;41.10;101440.63;3585977;39;20068;-70
2023/06/21 10:16:04;;;;;;;3.58;3.28;;;;;;;29.25;40.72;101449.69;3591063;39;20425;-70
2023/06/21 10:18:31;;;;;;;4.95;3.17;;;;;;;28.96;40.06;101457.09;3586347;39;20092;-71
2023/06/21 10:21:03;;;;;;;3.88;3.58;;;;;;;28.64;41.00;101455.75;3585971;39;20355;-68
2023/06/21 10:23:38;;;;;;;4.45;3.85;;;;;;;28.62;41.54;101455.97;3575729;39;20055;-69
2023/06/21 10:26:12;;;;;;;3.88;3.58;;;;;;;28.93;41.83;101463.91;3584334;39;20160;-69
2023/06/21 10:28:42;;;;;;;3.65;3.05;;;;;;;29.07;40.57;101461.25;3584975;39;20067;-69
2023/06/21 10:31:09;;;;;;;4.53;2.63;;;;;;;28.93;39.02;101472.19;3587873;39;20454;-70
2023/06/21 10:33:37;;;;;;;3.58;2.65;;;;;;;29.08;40.07;101466.63;3587905;39;20076;-70
2023/06/21 10:36:08;;;;;;;2.58;2.38;;;;;;;29.22;40.16;101459.25;3583680;39;20051;-70
2023/06/21 10:38:45;;;;;;;3.17;2.92;;;;;;;29.59;39.69;101479.28;3583302;39;20066;-70
2023/06/21 10:41:16;;;;;;;5.40;4.90;;;;;;;29.78;39.78;101478.59;3585085;39;20067;-69
2023/06/21 10:43:44;;;;;;;3.85;3.35;;;;;;;29.96;39.17;101482.69;3586372;39;20556;-69
2023/06/21 10:46:11;;;;;;;3.70;3.40;;;;;;;29.61;38.90;101471.66;3584873;39;20056;-69
2023/06/21 10:48:37;;;;;;;4.75;3.13;;;;;;;29.61;39.21;101468.88;3589943;39;20072;-69
2023/06/21 10:51:05;;;;;;;3.58;3.28;;;;;;;29.65;40.54;101481.25;3583246;39;20086;-69
2023/06/21 10:53:35;;;;;;;4.53;4.13;;;;;;;29.35;39.94;101478.72;3581925;39;20050;-69
2023/06/21 10:56:05;;;;;;;4.70;3.90;;;;;;;29.21;40.68;101479.69;3574143;39;20115;-71
2023/06/21 10:58:31;;;;;;;3.85;3.50;;;;;;;29.46;40.48;101485.59;3573029;39;20059;-70
2023/06/21 11:00:58;;;;;;;4.90;4.50;;;;;;;29.47;41.39;101475.41;3585437;39;20374;-70
2023/06/21 11:03:28;;;;;;;4.10;3.75;;;;;;;29.10;41.68;101475.56;3587629;39;20089;-68
2023/06/21 11:06:22;;;;;;;5.18;4.57;;;;;;;28.71;41.34;101498.19;3588030;39;20047;-68
2023/06/21 11:08:48;;;;;;;4.75;4.35;;;;;;;28.83;41.48;101493.84;3582206;39;20376;-69
2023/06/21 11:11:36;;;;;;;4.70;4.30;;;;;;;29.06;41.42;101490.88;3585227;39;20137;-69
2023/06/21 11:14:05;;;;;;;5.05;3.88;;;;;;;29.30;41.08;101488.69;3589783;39;20459;-69
2023/06/21 11:16:36;;;;;;;5.65;3.10;;;;;;;29.67;40.60;101493.00;3583302;39;20087;-69
2023/06/21 11:19:07;;;;;;;3.28;2.70;;;;;;;29.87;39.54;101500.56;3583230;39;20055;-69
2023/06/21 11:21:44;;;;;;;4.75;3.10;;;;;;;29.69;38.31;101452.09;3585305;39;20052;-69